createdAt,value
2019-01-10T00:01:03.291Z,1.00
2019-01-10T00:03:53.178Z,1.00
2019-01-10T00:06:43.934Z,1.10
2019-01-10T00:09:34.197Z,1.20
2019-01-10T00:12:24.646Z,1.30
2019-01-10T00:15:16.898Z,1.30
2019-01-10T00:18:07.105Z,1.30
2019-01-10T00:20:57.082Z,1.30
2019-01-10T00:23:47.077Z,1.30
2019-01-10T00:26:37.066Z,1.30
2019-01-10T00:29:27.409Z,1.30
2019-01-10T00:32:18.291Z,1.30
2019-01-10T00:35:09.469Z,1.20
2019-01-10T00:37:59.390Z,1.30
2019-01-10T00:40:49.467Z,1.30
2019-01-10T00:43:40.243Z,1.20
2019-01-10T00:46:30.281Z,1.30
2019-01-10T00:49:21.042Z,1.30
2019-01-10T00:52:11.364Z,1.20
2019-01-10T00:55:01.631Z,1.20
2019-01-10T00:57:52.444Z,1.20
2019-01-10T01:00:42.530Z,1.20
2019-01-10T01:03:32.741Z,1.20
2019-01-10T01:06:22.778Z,1.10
2019-01-10T01:09:13.162Z,1.10
2019-01-10T01:12:03.957Z,1.10
2019-01-10T01:14:54.025Z,1.00
2019-01-10T01:17:44.417Z,1.00
2019-01-10T01:20:34.809Z,1.00
2019-01-10T01:23:24.839Z,0.90
2019-01-10T01:26:16.114Z,0.90
2019-01-10T01:29:06.359Z,0.90
2019-01-10T01:31:57.050Z,0.90
2019-01-10T01:34:47.965Z,0.90
2019-01-10T01:37:38.129Z,0.70
2019-01-10T01:40:28.094Z,0.70
2019-01-10T01:43:18.509Z,0.60
2019-01-10T01:46:08.775Z,0.50
2019-01-10T01:48:59.041Z,0.50
2019-01-10T01:51:49.182Z,0.40
2019-01-10T01:54:40.262Z,0.30
2019-01-10T01:57:30.569Z,0.30
2019-01-10T02:00:24.990Z,0.20
2019-01-10T02:03:15.069Z,0.20
2019-01-10T02:06:05.878Z,0.20
2019-01-10T02:08:57.820Z,0.20
2019-01-10T02:11:47.978Z,0.20
2019-01-10T02:14:38.684Z,0.20
2019-01-10T02:17:29.051Z,0.20
2019-01-10T02:20:19.915Z,0.20
2019-01-10T02:23:09.886Z,0.30
2019-01-10T02:26:00.322Z,0.30
2019-01-10T02:28:50.173Z,0.20
2019-01-10T02:31:40.200Z,0.20
2019-01-10T02:34:30.532Z,0.20
2019-01-10T02:37:20.550Z,0.10
2019-01-10T02:40:11.387Z,0.10
2019-01-10T02:43:01.615Z,0.10
2019-01-10T02:45:51.950Z,0.10
2019-01-10T02:48:42.364Z,0.10
2019-01-10T02:51:32.275Z,0.10
2019-01-10T02:54:22.723Z,0.10
2019-01-10T02:57:13.070Z,0.10
2019-01-10T03:00:03.348Z,0.10
2019-01-10T03:02:54.887Z,0.10
2019-01-10T03:05:45.442Z,0.10
2019-01-10T03:08:35.419Z,0.00
2019-01-10T03:11:26.013Z,0.00
2019-01-10T03:14:16.842Z,0.00
2019-01-10T03:17:07.162Z,0.00
2019-01-10T03:19:57.190Z,0.00
2019-01-10T03:22:47.577Z,0.00
2019-01-10T03:25:37.781Z,0.00
2019-01-10T03:28:28.007Z,0.10
2019-01-10T03:31:18.353Z,0.10
2019-01-10T03:34:08.835Z,0.10
2019-01-10T03:36:58.835Z,0.10
2019-01-10T03:39:49.158Z,0.10
2019-01-10T03:42:39.262Z,0.00
2019-01-10T03:45:29.678Z,0.00
2019-01-10T03:48:19.709Z,0.00
2019-01-10T03:51:10.043Z,0.10
2019-01-10T03:54:00.330Z,0.10
2019-01-10T03:56:50.341Z,0.10
2019-01-10T03:59:40.547Z,0.10
2019-01-10T04:02:30.757Z,0.20
2019-01-10T04:05:20.906Z,0.20
2019-01-10T04:08:11.057Z,0.20
2019-01-10T04:11:01.338Z,0.30
2019-01-10T04:13:57.250Z,0.30
2019-01-10T04:16:42.940Z,0.30
2019-01-10T04:19:33.253Z,0.40
2019-01-10T04:22:23.526Z,0.30
2019-01-10T04:25:15.534Z,0.40
2019-01-10T04:28:06.306Z,0.40
2019-01-10T04:30:56.636Z,0.40
2019-01-10T04:33:46.601Z,0.40
2019-01-10T04:36:37.265Z,0.40
2019-01-10T04:39:27.575Z,0.50
2019-01-10T04:42:18.170Z,0.50
2019-01-10T04:45:08.663Z,0.60
2019-01-10T04:47:58.642Z,0.60
2019-01-10T04:50:48.886Z,0.50
2019-01-10T04:53:38.895Z,0.50
2019-01-10T04:56:29.180Z,0.50
2019-01-10T04:59:19.350Z,0.50
2019-01-10T05:02:18.130Z,0.40
2019-01-10T05:05:02.091Z,0.30
2019-01-10T05:07:52.630Z,0.30
2019-01-10T05:10:43.042Z,0.30
2019-01-10T05:13:33.650Z,0.40
2019-01-10T05:16:24.092Z,0.40
2019-01-10T05:19:14.244Z,0.50
2019-01-10T05:22:04.356Z,0.60
2019-01-10T05:24:54.666Z,0.60
2019-01-10T05:27:44.570Z,0.60
2019-01-10T05:30:34.925Z,0.60
2019-01-10T05:33:25.015Z,0.60
2019-01-10T05:36:15.426Z,0.60
2019-01-10T05:39:09.055Z,0.60
2019-01-10T05:41:59.408Z,0.50
2019-01-10T05:44:49.790Z,0.50
2019-01-10T05:47:42.818Z,0.50
2019-01-10T05:50:32.254Z,0.50
2019-01-10T05:53:22.442Z,0.50
2019-01-10T05:56:15.721Z,0.50
2019-01-10T05:59:03.838Z,0.50
2019-01-10T06:01:53.914Z,0.40
2019-01-10T06:04:44.235Z,0.40
2019-01-10T06:07:34.398Z,0.50
2019-01-10T06:10:26.762Z,0.50
2019-01-10T06:13:17.320Z,0.50
2019-01-10T06:16:07.502Z,0.60
2019-01-10T06:18:57.810Z,0.60
2019-01-10T06:21:48.217Z,0.80
2019-01-10T06:24:39.010Z,0.70
2019-01-10T06:27:29.187Z,0.70
2019-01-10T06:30:22.009Z,0.70
2019-01-10T06:33:12.274Z,0.70
2019-01-10T06:36:02.872Z,0.70
2019-01-10T06:38:54.325Z,0.70
2019-01-10T06:41:44.597Z,0.60
2019-01-10T06:44:34.654Z,0.60
2019-01-10T06:47:25.068Z,0.60
2019-01-10T06:50:16.687Z,0.60
2019-01-10T06:53:07.005Z,0.60
2019-01-10T06:55:57.338Z,0.70
2019-01-10T06:58:47.457Z,0.70
2019-01-10T07:01:37.739Z,0.70
2019-01-10T07:04:27.986Z,0.70
2019-01-10T07:07:18.622Z,0.70
2019-01-10T07:10:16.018Z,0.70
2019-01-10T07:13:06.068Z,0.70
2019-01-10T07:15:56.646Z,0.60
2019-01-10T07:18:47.202Z,0.70
2019-01-10T07:21:56.897Z,0.70
2019-01-10T07:24:54.732Z,0.70
2019-01-10T07:27:44.944Z,0.60
2019-01-10T07:30:36.336Z,0.60
2019-01-10T07:33:26.643Z,0.60
2019-01-10T07:36:16.674Z,0.60
2019-01-10T07:39:09.078Z,0.70
2019-01-10T07:42:00.231Z,0.70
2019-01-10T07:44:50.641Z,0.80
2019-01-10T07:47:51.364Z,0.90
2019-01-10T07:50:41.538Z,1.00
2019-01-10T07:53:31.564Z,1.00
2019-01-10T07:56:21.814Z,1.10
2019-01-10T07:59:12.147Z,1.10
2019-01-10T08:02:02.297Z,1.10
2019-01-10T08:04:52.794Z,1.10
2019-01-10T08:07:43.296Z,1.10
2019-01-10T08:10:34.735Z,1.10
2019-01-10T08:13:24.635Z,1.10
2019-01-10T08:16:14.715Z,1.20
2019-01-10T08:19:05.257Z,1.20
2019-01-10T08:21:55.834Z,1.30
2019-01-10T08:24:45.878Z,1.30
2019-01-10T08:27:36.294Z,1.30
2019-01-10T08:30:27.158Z,1.30
2019-01-10T08:33:17.298Z,1.30
2019-01-10T08:36:07.642Z,1.30
2019-01-10T08:38:57.937Z,1.30
2019-01-10T08:41:48.451Z,1.40
2019-01-10T08:44:39.343Z,1.50
2019-01-10T08:47:30.159Z,1.60
2019-01-10T08:50:22.921Z,1.60
2019-01-10T08:53:13.238Z,1.60
2019-01-10T08:56:03.481Z,1.60
2019-01-10T08:58:53.500Z,1.60
2019-01-10T09:01:43.805Z,1.60
2019-01-10T09:04:34.126Z,1.70
2019-01-10T09:07:24.526Z,1.80
2019-01-10T09:10:34.925Z,1.80
2019-01-10T09:13:24.940Z,1.90
2019-01-10T09:16:15.262Z,2.00
2019-01-10T09:19:06.322Z,2.00
2019-01-10T09:21:56.642Z,2.00
2019-01-10T09:24:47.052Z,2.10
2019-01-10T09:27:36.997Z,2.20
2019-01-10T09:30:27.102Z,2.30
2019-01-10T09:33:17.536Z,2.50
2019-01-10T09:36:07.466Z,2.50
2019-01-10T09:38:57.669Z,2.60
2019-01-10T09:41:48.088Z,2.70
2019-01-10T09:44:38.478Z,2.80
2019-01-10T09:47:28.941Z,2.90
2019-01-10T09:50:19.622Z,3.10
2019-01-10T09:53:09.902Z,3.20
2019-01-10T09:56:00.058Z,3.20
2019-01-10T09:58:50.229Z,3.30
2019-01-10T10:01:40.246Z,3.30
2019-01-10T10:04:30.378Z,3.50
2019-01-10T10:07:20.642Z,3.60
2019-01-10T10:10:12.870Z,3.70
2019-01-10T10:13:03.515Z,3.70
2019-01-10T10:15:53.674Z,3.90
2019-01-10T10:18:44.222Z,4.00
2019-01-10T10:21:34.570Z,4.00
2019-01-10T10:24:24.924Z,4.10
2019-01-10T10:27:15.805Z,4.20
2019-01-10T10:30:08.417Z,4.20
2019-01-10T10:32:58.477Z,4.30
2019-01-10T10:35:48.661Z,4.40
2019-01-10T10:38:38.991Z,4.40
2019-01-10T10:41:29.745Z,4.40
2019-01-10T10:44:19.969Z,4.30
2019-01-10T10:47:10.233Z,4.30
2019-01-10T10:50:00.601Z,4.30
2019-01-10T10:52:51.162Z,4.30
2019-01-10T10:55:41.452Z,4.30
2019-01-10T10:58:31.494Z,4.30
2019-01-10T11:01:21.784Z,4.40
2019-01-10T11:04:12.214Z,4.40
2019-01-10T11:07:02.628Z,4.40
2019-01-10T11:09:53.030Z,4.50
2019-01-10T11:12:43.061Z,4.60
2019-01-10T11:15:33.412Z,4.60
2019-01-10T11:18:23.806Z,4.70
2019-01-10T11:21:14.032Z,4.90
2019-01-10T11:24:04.942Z,5.00
2019-01-10T11:26:55.219Z,5.00
2019-01-10T11:29:45.486Z,5.00
2019-01-10T11:32:35.435Z,5.00
2019-01-10T11:35:25.690Z,4.90
2019-01-10T11:38:16.236Z,4.90
2019-01-10T11:41:06.370Z,4.90
2019-01-10T11:43:56.773Z,5.00
2019-01-10T11:46:47.215Z,5.10
2019-01-10T11:49:39.398Z,5.20
2019-01-10T11:52:29.579Z,5.30
2019-01-10T11:55:19.902Z,5.30
2019-01-10T11:58:10.086Z,5.40
2019-01-10T12:01:00.222Z,5.40
2019-01-10T12:03:50.420Z,5.40
2019-01-10T12:06:41.006Z,5.30
2019-01-10T12:09:31.662Z,5.30
2019-01-10T12:12:21.910Z,5.20
2019-01-10T12:15:12.419Z,5.20
2019-01-10T12:18:02.849Z,5.20
2019-01-10T12:20:53.540Z,5.10
2019-01-10T12:23:44.005Z,5.10
2019-01-10T12:26:34.146Z,5.10
2019-01-10T12:29:24.372Z,5.10
2019-01-10T12:32:15.127Z,5.10
2019-01-10T12:35:06.142Z,5.20
2019-01-10T12:37:56.926Z,5.20
2019-01-10T12:40:46.944Z,5.20
2019-01-10T12:43:37.414Z,5.20
2019-01-10T12:46:27.713Z,5.20
2019-01-10T12:49:17.622Z,5.20
2019-01-10T12:52:07.969Z,5.20
2019-01-10T12:54:58.690Z,5.20
2019-01-10T12:57:48.709Z,5.20
2019-01-10T13:00:39.406Z,5.20
2019-01-10T13:03:29.646Z,5.20
2019-01-10T13:06:19.681Z,5.20
2019-01-10T13:09:09.893Z,5.10
2019-01-10T13:12:00.285Z,5.10
2019-01-10T13:14:50.555Z,5.10
2019-01-10T13:17:40.850Z,5.10
2019-01-10T13:20:31.183Z,5.10
2019-01-10T13:23:21.697Z,5.20
2019-01-10T13:26:11.710Z,5.20
2019-01-10T13:29:01.982Z,5.20
2019-01-10T13:31:52.454Z,5.10
2019-01-10T13:34:42.786Z,5.10
2019-01-10T13:37:33.058Z,5.10
2019-01-10T13:40:23.974Z,5.10
2019-01-10T13:43:14.282Z,5.10
2019-01-10T13:46:04.506Z,5.10
2019-01-10T13:48:54.589Z,5.10
2019-01-10T13:51:44.741Z,5.10
2019-01-10T13:54:35.110Z,5.20
2019-01-10T13:57:25.428Z,5.20
2019-01-10T14:00:21.247Z,5.20
2019-01-10T14:03:11.859Z,5.20
2019-01-10T14:06:02.718Z,5.20
2019-01-10T14:08:52.874Z,5.20
2019-01-10T14:11:43.003Z,5.20
2019-01-10T14:14:33.429Z,5.30
2019-01-10T14:17:23.546Z,5.40
2019-01-10T14:20:14.469Z,5.50
2019-01-10T14:23:04.654Z,5.60
2019-01-10T14:25:54.670Z,5.60
2019-01-10T14:28:45.237Z,5.60
2019-01-10T14:31:36.034Z,5.60
2019-01-10T14:34:26.446Z,5.60
2019-01-10T14:37:16.532Z,5.50
2019-01-10T14:40:07.807Z,5.60
2019-01-10T14:42:58.490Z,5.50
2019-01-10T14:45:48.891Z,5.50
2019-01-10T14:48:39.022Z,5.50
2019-01-10T14:51:29.459Z,5.50
2019-01-10T14:54:19.574Z,5.50
2019-01-10T14:57:09.557Z,5.50
2019-01-10T14:59:59.935Z,5.50
2019-01-10T15:02:50.481Z,5.40
2019-01-10T15:05:41.007Z,5.40
2019-01-10T15:08:31.278Z,5.40
2019-01-10T15:11:21.498Z,5.40
2019-01-10T15:14:16.191Z,5.40
2019-01-10T15:17:04.312Z,5.30
2019-01-10T15:19:54.566Z,5.20
2019-01-10T15:22:44.564Z,5.20
2019-01-10T15:25:34.729Z,5.20
2019-01-10T15:28:25.606Z,5.20
2019-01-10T15:31:15.838Z,5.10
2019-01-10T15:34:07.528Z,5.10
2019-01-10T15:36:57.598Z,5.10
2019-01-10T15:39:47.662Z,5.00
2019-01-10T15:42:37.928Z,5.00
2019-01-10T15:45:28.841Z,4.90
2019-01-10T15:48:19.033Z,4.90
2019-01-10T15:51:09.197Z,4.90
2019-01-10T15:53:59.190Z,4.80
2019-01-10T15:56:50.047Z,4.80
2019-01-10T15:59:40.023Z,4.80
2019-01-10T16:02:30.434Z,4.80
2019-01-10T16:05:20.672Z,4.70
2019-01-10T16:08:10.786Z,4.70
2019-01-10T16:11:01.252Z,4.70
2019-01-10T16:13:51.414Z,4.70
2019-01-10T16:16:41.413Z,4.60
2019-01-10T16:19:31.482Z,4.60
2019-01-10T16:22:21.721Z,4.50
2019-01-10T16:25:12.330Z,4.50
2019-01-10T16:28:02.778Z,4.40
2019-01-10T16:30:52.830Z,4.40
2019-01-10T16:33:43.160Z,4.30
2019-01-10T16:36:33.453Z,4.30
2019-01-10T16:39:23.374Z,4.30
2019-01-10T16:42:13.775Z,4.30
2019-01-10T16:45:05.171Z,4.30
2019-01-10T16:47:55.233Z,4.30
2019-01-10T16:50:45.186Z,4.30
2019-01-10T16:53:35.571Z,4.30
2019-01-10T16:56:25.912Z,4.30
2019-01-10T16:59:16.214Z,4.30
2019-01-10T17:02:06.538Z,4.30
2019-01-10T17:04:56.930Z,4.20
2019-01-10T17:07:47.126Z,4.20
2019-01-10T17:10:37.423Z,4.20
2019-01-10T17:13:27.397Z,4.20
2019-01-10T17:16:17.321Z,4.20
2019-01-10T17:19:07.385Z,4.10
2019-01-10T17:21:57.715Z,4.10
2019-01-10T17:24:48.010Z,4.10
2019-01-10T17:27:38.481Z,4.10
2019-01-10T17:30:30.790Z,4.00
2019-01-10T17:33:20.915Z,4.00
2019-01-10T17:36:11.026Z,4.00
2019-01-10T17:39:01.035Z,3.90
2019-01-10T17:41:52.967Z,3.80
2019-01-10T17:44:43.194Z,3.90
2019-01-10T17:47:33.135Z,3.90
2019-01-10T17:50:23.390Z,3.80
2019-01-10T17:53:14.519Z,3.80
2019-01-10T17:56:04.839Z,3.80
2019-01-10T17:58:55.070Z,3.80
2019-01-10T18:01:45.702Z,3.80
2019-01-10T18:04:35.932Z,3.80
2019-01-10T18:07:26.168Z,3.80
2019-01-10T18:10:17.738Z,3.90
2019-01-10T18:13:07.718Z,3.90
2019-01-10T18:15:57.997Z,4.00
2019-01-10T18:18:47.982Z,4.10
2019-01-10T18:21:38.038Z,4.10
2019-01-10T18:24:28.278Z,4.10
2019-01-10T18:27:18.595Z,4.20
2019-01-10T18:30:18.082Z,4.20
2019-01-10T18:33:08.445Z,4.20
2019-01-10T18:35:58.661Z,4.20
2019-01-10T18:38:48.769Z,4.20
2019-01-10T18:41:39.295Z,4.20
2019-01-10T18:44:29.301Z,4.10
2019-01-10T18:47:19.908Z,4.10
2019-01-10T18:50:13.786Z,4.10
2019-01-10T18:53:04.631Z,4.00
2019-01-10T18:55:55.166Z,4.10
2019-01-10T18:58:45.646Z,4.00
2019-01-10T19:01:36.622Z,4.00
2019-01-10T19:04:26.650Z,4.00
2019-01-10T19:07:17.001Z,4.00
2019-01-10T19:10:07.290Z,3.90
2019-01-10T19:12:57.166Z,4.00
2019-01-10T19:15:47.185Z,3.90
2019-01-10T19:18:37.269Z,3.90
2019-01-10T19:21:27.566Z,3.90
2019-01-10T19:24:17.778Z,3.90
2019-01-10T19:27:08.326Z,3.90
2019-01-10T19:29:59.874Z,3.80
2019-01-10T19:32:49.894Z,3.80
2019-01-10T19:35:39.982Z,3.90
2019-01-10T19:38:29.931Z,3.80
2019-01-10T19:41:19.878Z,3.80
2019-01-10T19:44:10.053Z,3.80
2019-01-10T19:47:00.077Z,3.80
2019-01-10T19:49:50.609Z,3.80
2019-01-10T19:52:41.049Z,3.80
2019-01-10T19:55:31.177Z,3.80
2019-01-10T19:58:21.138Z,3.80
2019-01-10T20:01:11.143Z,3.80
2019-01-10T20:04:01.385Z,3.80
2019-01-10T20:06:51.683Z,3.70
2019-01-10T20:09:42.451Z,3.70
2019-01-10T20:12:32.390Z,3.70
2019-01-10T20:15:22.462Z,3.70
2019-01-10T20:18:16.081Z,3.70
2019-01-10T20:21:04.750Z,3.70
2019-01-10T20:23:55.173Z,3.70
2019-01-10T20:26:45.299Z,3.70
2019-01-10T20:29:35.297Z,3.70
2019-01-10T20:32:25.424Z,3.70
2019-01-10T20:35:16.123Z,3.70
2019-01-10T20:38:06.178Z,3.70
2019-01-10T20:40:56.244Z,3.60
2019-01-10T20:43:46.349Z,3.70
2019-01-10T20:46:36.986Z,3.70
2019-01-10T20:49:27.510Z,3.70
2019-01-10T20:52:17.693Z,3.70
2019-01-10T20:55:09.328Z,3.70
2019-01-10T20:57:59.809Z,3.70
2019-01-10T21:00:50.098Z,3.70
2019-01-10T21:03:40.106Z,3.70
2019-01-10T21:06:30.453Z,3.70
2019-01-10T21:09:21.258Z,3.70
2019-01-10T21:12:11.701Z,3.70
2019-01-10T21:15:02.002Z,3.70
2019-01-10T21:17:52.287Z,3.70
2019-01-10T21:20:42.302Z,3.70
2019-01-10T21:23:32.474Z,3.80
2019-01-10T21:26:22.454Z,3.70
2019-01-10T21:29:22.481Z,3.70
2019-01-10T21:32:13.218Z,3.70
2019-01-10T21:35:03.546Z,3.60
2019-01-10T21:37:54.390Z,3.60
2019-01-10T21:40:44.574Z,3.70
2019-01-10T21:43:34.697Z,3.70
2019-01-10T21:46:24.663Z,3.80
2019-01-10T21:49:14.534Z,3.80
2019-01-10T21:52:04.986Z,3.80
2019-01-10T21:54:55.743Z,3.80
2019-01-10T21:57:45.758Z,3.80
2019-01-10T22:00:36.095Z,3.70
2019-01-10T22:03:26.351Z,3.80
2019-01-10T22:06:16.785Z,3.80
2019-01-10T22:09:07.914Z,3.70
2019-01-10T22:11:58.322Z,3.70
2019-01-10T22:14:48.626Z,3.70
2019-01-10T22:17:38.601Z,3.80
2019-01-10T22:20:29.267Z,3.80
2019-01-10T22:23:19.386Z,3.70
2019-01-10T22:26:09.474Z,3.80
2019-01-10T22:28:59.442Z,3.80
2019-01-10T22:31:50.073Z,3.80
2019-01-10T22:34:40.478Z,3.80
2019-01-10T22:37:30.659Z,3.80
2019-01-10T22:40:22.638Z,3.80
2019-01-10T22:43:12.875Z,3.70
2019-01-10T22:46:02.882Z,3.70
2019-01-10T22:48:53.567Z,3.70
2019-01-10T22:51:43.921Z,3.70
2019-01-10T22:54:33.914Z,3.70
2019-01-10T22:57:24.405Z,3.70
2019-01-10T23:01:24.950Z,3.70
2019-01-10T23:04:19.797Z,3.70
2019-01-10T23:07:19.361Z,3.70
2019-01-10T23:10:10.969Z,3.70
2019-01-10T23:13:01.037Z,3.80
2019-01-10T23:15:51.294Z,3.70
2019-01-10T23:18:42.089Z,3.80
2019-01-10T23:21:34.269Z,3.80
2019-01-10T23:24:26.885Z,3.80
2019-01-10T23:27:16.094Z,3.70
2019-01-10T23:30:06.837Z,3.70
2019-01-10T23:32:59.874Z,3.80
2019-01-10T23:35:56.058Z,3.70
2019-01-10T23:39:10.025Z,3.70
2019-01-10T23:42:00.229Z,3.80
2019-01-10T23:44:50.598Z,3.80
2019-01-10T23:47:40.514Z,3.70
2019-01-10T23:50:31.506Z,3.80
2019-01-10T23:53:21.661Z,3.80
2019-01-10T23:56:11.793Z,3.80
2019-01-10T23:59:02.141Z,3.90
